Time;durP1;ratioP1;P1;durP2;ratioP2;P2;SDS_P1;SDS_P2;PMS_P1;PMS_P2;Temp;Humidity;BMP_temperature;BMP_pressure;BME280_temperature;BME280_humidity;BME280_pressure;Samples;Min_cycle;Max_cycle;Signal;HPM_P1;HPM_P2
2021/03/05 00:02:05;;;;;;;23.27;14.45;;;;;;;5.05;67.17;99217.09;5113965;28;20035;-72
2021/03/05 00:04:31;;;;;;;21.40;13.63;;;;;;;5.05;67.49;99224.97;5113542;28;20138;-71
2021/03/05 00:06:58;;;;;;;20.17;13.77;;;;;;;5.18;67.56;99221.97;5113669;28;20044;-71
2021/03/05 00:09:25;;;;;;;20.65;13.68;;;;;;;5.29;67.43;99220.94;5113512;28;20035;-71
2021/03/05 00:11:51;;;;;;;20.42;13.75;;;;;;;5.41;67.39;99223.22;5113595;28;20046;-71
2021/03/05 00:14:19;;;;;;;22.52;14.30;;;;;;;5.31;66.56;99222.47;5113389;28;20048;-71
2021/03/05 00:16:46;;;;;;;25.35;15.93;;;;;;;5.17;66.55;99221.16;5112113;28;20440;-72
2021/03/05 00:19:13;;;;;;;28.88;15.93;;;;;;;5.26;67.04;99229.09;5113742;28;20046;-71
2021/03/05 00:21:39;;;;;;;24.25;15.25;;;;;;;5.04;66.28;99227.72;5113591;28;20050;-71
2021/03/05 00:24:07;;;;;;;25.45;15.15;;;;;;;5.06;66.85;99228.41;5113627;28;20043;-71
2021/03/05 00:26:34;;;;;;;27.60;15.90;;;;;;;5.12;66.81;99240.94;5113236;28;20036;-71
2021/03/05 00:29:01;;;;;;;28.63;17.48;;;;;;;4.92;66.88;99234.97;5113117;28;20043;-71
2021/03/05 00:31:28;;;;;;;28.70;17.02;;;;;;;4.87;67.09;99229.34;5113228;28;20050;-71
2021/03/05 00:33:55;;;;;;;28.70;15.30;;;;;;;4.78;67.42;99233.66;5111896;28;20390;-71
2021/03/05 00:36:22;;;;;;;30.52;17.40;;;;;;;4.75;67.80;99233.94;5113170;28;20046;-71
2021/03/05 00:38:50;;;;;;;26.42;15.93;;;;;;;4.82;67.69;99240.25;5112825;27;20062;-71
2021/03/05 00:41:16;;;;;;;31.67;17.05;;;;;;;4.96;67.92;99237.16;5113009;28;20439;-72
2021/03/05 00:43:43;;;;;;;28.33;16.42;;;;;;;5.03;67.82;99231.34;5112986;28;20050;-71
2021/03/05 00:46:10;;;;;;;26.75;16.08;;;;;;;5.16;67.49;99243.09;5112738;28;20046;-72
2021/03/05 00:48:37;;;;;;;27.73;17.05;;;;;;;5.13;67.10;99237.31;5112618;28;20517;-72
2021/03/05 00:51:07;;;;;;;28.60;17.25;;;;;;;5.11;67.33;99247.16;5111564;28;20051;-71
2021/03/05 00:53:34;;;;;;;29.90;16.88;;;;;;;5.06;67.36;99247.59;5111618;28;20040;-71
2021/03/05 00:56:01;;;;;;;27.02;16.50;;;;;;;5.14;67.50;99245.06;5111341;28;20074;-71
2021/03/05 00:58:31;;;;;;;29.33;17.00;;;;;;;5.27;67.32;99249.13;5112399;28;20070;-71
2021/03/05 01:01:03;;;;;;;26.77;16.60;;;;;;;5.28;67.49;99253.38;5111437;28;20067;-71
2021/03/05 01:03:30;;;;;;;28.73;15.82;;;;;;;5.28;67.19;99259.44;5112544;28;20031;-71
2021/03/05 01:06:14;;;;;;;27.67;15.75;;;;;;;5.17;67.32;99264.88;5111279;28;20048;-71
2021/03/05 01:08:47;;;;;;;23.90;16.10;;;;;;;5.29;67.20;99265.50;5110946;28;20040;-71
2021/03/05 01:11:14;;;;;;;25.13;15.18;;;;;;;5.32;67.20;99262.59;5112438;28;20043;-71
2021/03/05 01:13:40;;;;;;;27.27;16.75;;;;;;;5.20;67.13;99256.75;5112538;28;20047;-72
2021/03/05 01:16:07;;;;;;;25.85;15.68;;;;;;;5.17;67.29;99263.09;5112320;28;20412;-72
2021/03/05 01:18:34;;;;;;;22.77;15.23;;;;;;;5.24;67.44;99259.91;5112235;28;20047;-71
2021/03/05 01:21:01;;;;;;;25.83;15.57;;;;;;;5.31;67.27;99258.34;5112447;28;20039;-71
2021/03/05 01:23:29;;;;;;;24.00;14.93;;;;;;;5.21;66.58;99259.22;5111058;28;20125;-72
2021/03/05 01:25:56;;;;;;;25.10;16.13;;;;;;;5.13;67.21;99260.91;5112177;28;20046;-72
2021/03/05 01:28:24;;;;;;;24.77;16.08;;;;;;;5.08;67.25;99263.97;5110919;28;20052;-71
2021/03/05 01:30:50;;;;;;;26.42;15.65;;;;;;;5.15;67.55;99272.09;5112269;28;20051;-71
2021/03/05 01:33:17;;;;;;;27.23;16.38;;;;;;;5.21;67.31;99266.25;5112272;28;20432;-72
2021/03/05 01:35:44;;;;;;;25.80;14.07;;;;;;;5.17;66.92;99260.47;5112187;28;20051;-71
2021/03/05 01:38:11;;;;;;;24.00;14.63;;;;;;;5.13;67.22;99269.59;5112069;28;20048;-72
2021/03/05 01:40:42;;;;;;;29.05;15.27;;;;;;;5.04;67.03;99261.81;5110867;28;20047;-71
2021/03/05 01:43:11;;;;;;;26.38;15.63;;;;;;;5.08;67.23;99273.63;5112331;28;20045;-71
2021/03/05 01:45:38;;;;;;;22.85;15.05;;;;;;;5.04;67.54;99267.03;5110636;28;20500;-71
2021/03/05 01:48:10;;;;;;;28.52;16.70;;;;;;;5.07;67.54;99264.97;5112018;28;20521;-72
2021/03/05 01:50:43;;;;;;;25.15;15.88;;;;;;;5.20;67.75;99265.44;5112175;28;20036;-71
2021/03/05 01:53:10;;;;;;;25.15;15.73;;;;;;;5.22;67.56;99265.28;5112632;28;20032;-71
2021/03/05 01:55:37;;;;;;;26.17;15.95;;;;;;;5.35;67.54;99265.75;5112000;28;20039;-71
2021/03/05 01:58:04;;;;;;;25.20;15.63;;;;;;;5.32;66.98;99259.97;5111983;28;20405;-72
2021/03/05 02:00:35;;;;;;;25.25;15.60;;;;;;;5.29;67.28;99252.41;5111923;28;20050;-71
2021/03/05 02:03:02;;;;;;;28.40;16.52;;;;;;;5.38;67.41;99252.34;5110715;28;20051;-71
2021/03/05 02:05:29;;;;;;;27.20;15.27;;;;;;;5.52;67.25;99247.56;5111857;28;20044;-72
2021/03/05 02:07:56;;;;;;;25.40;15.40;;;;;;;5.53;67.11;99249.22;5111807;28;20039;-72
2021/03/05 02:10:22;;;;;;;25.40;15.80;;;;;;;5.50;66.93;99255.56;5111809;28;20405;-71
2021/03/05 02:12:50;;;;;;;25.13;15.60;;;;;;;5.54;67.31;99259.53;5111933;28;20071;-72
2021/03/05 02:15:18;;;;;;;29.52;17.30;;;;;;;5.47;67.34;99256.72;5111766;28;20050;-72
2021/03/05 02:17:51;;;;;;;27.23;16.13;;;;;;;5.50;67.09;99252.13;5111757;28;20050;-72
2021/03/05 02:20:28;;;;;;;27.73;17.13;;;;;;;5.44;67.16;99250.94;5113112;28;20060;-72
2021/03/05 02:23:12;;;;;;;26.45;15.77;;;;;;;5.27;67.30;99257.81;5115700;28;20509;-72
2021/03/05 02:26:20;;;;;;;28.00;15.90;;;;;;;5.34;67.42;99252.78;5115480;28;20405;-72
2021/03/05 02:29:13;;;;;;;30.23;16.70;;;;;;;5.34;67.47;99256.22;5078929;28;20057;-72
2021/03/05 02:31:44;;;;;;;27.13;16.08;;;;;;;5.41;67.08;99253.84;5115452;28;20386;-72
2021/03/05 02:34:17;;;;;;;24.58;14.93;;;;;;;5.30;67.03;99254.88;5115408;28;20073;-72
2021/03/05 02:36:49;;;;;;;24.20;15.68;;;;;;;5.31;67.38;99260.97;5115478;28;20047;-71
2021/03/05 02:39:18;;;;;;;25.15;15.68;;;;;;;5.31;67.44;99255.72;5115212;28;20418;-72
2021/03/05 02:41:48;;;;;;;25.25;15.30;;;;;;;5.40;67.21;99249.59;5114645;28;20528;-72
2021/03/05 02:44:20;;;;;;;26.55;15.65;;;;;;;5.40;67.07;99257.44;5115149;28;20059;-71
2021/03/05 02:46:49;;;;;;;24.02;14.18;;;;;;;5.39;67.06;99254.00;5115266;28;20035;-72
2021/03/05 02:49:20;;;;;;;24.38;14.38;;;;;;;5.41;67.20;99259.91;5113688;28;20050;-72
2021/03/05 02:51:49;;;;;;;25.35;14.95;;;;;;;5.46;66.74;99257.66;5115053;28;20035;-72
2021/03/05 02:54:17;;;;;;;29.10;15.20;;;;;;;5.50;66.85;99254.75;5114994;28;20042;-72
2021/03/05 02:56:46;;;;;;;22.27;13.95;;;;;;;5.52;66.56;99255.44;5133906;28;20079;-73
2021/03/05 02:59:16;;;;;;;25.80;15.02;;;;;;;5.37;66.65;99255.13;5141289;28;20041;-72
2021/03/05 03:01:48;;;;;;;23.17;14.65;;;;;;;5.34;66.69;99252.78;5137908;28;20050;-70
2021/03/05 03:04:17;;;;;;;23.20;14.25;;;;;;;5.35;67.13;99260.53;5115320;28;20047;-71
2021/03/05 03:06:44;;;;;;;25.52;15.20;;;;;;;5.35;66.95;99263.13;5115265;27;20047;-71
2021/03/05 03:09:14;;;;;;;26.33;15.82;;;;;;;5.25;67.08;99259.75;5114889;28;20047;-71
2021/03/05 03:11:43;;;;;;;26.52;15.77;;;;;;;5.32;67.36;99252.94;5113341;28;20101;-72
2021/03/05 03:14:12;;;;;;;24.65;14.27;;;;;;;5.33;67.24;99264.25;5114580;28;20031;-72
2021/03/05 03:16:41;;;;;;;29.67;15.13;;;;;;;5.22;67.31;99266.13;5114667;28;20054;-72
2021/03/05 03:19:12;;;;;;;25.67;15.65;;;;;;;5.31;67.38;99271.44;5114486;28;20421;-72
2021/03/05 03:21:40;;;;;;;25.30;15.10;;;;;;;5.33;67.50;99274.75;5114574;27;20036;-72
2021/03/05 03:24:09;;;;;;;29.42;16.95;;;;;;;5.32;67.33;99279.16;5114382;27;20464;-72
2021/03/05 03:26:37;;;;;;;29.58;15.80;;;;;;;5.36;67.35;99277.91;5114331;28;20051;-72
2021/03/05 03:29:07;;;;;;;26.08;15.82;;;;;;;5.48;67.19;99283.75;5114095;28;20054;-72
2021/03/05 03:31:35;;;;;;;25.25;15.65;;;;;;;5.54;67.08;99290.19;5113065;28;20047;-73
2021/03/05 03:34:03;;;;;;;25.60;15.60;;;;;;;5.47;66.98;99290.81;5114349;28;20080;-73
2021/03/05 03:36:35;;;;;;;28.42;16.08;;;;;;;5.26;66.99;99290.22;5114134;28;20043;-73
2021/03/05 03:39:03;;;;;;;27.75;15.43;;;;;;;5.26;67.44;99292.84;5112851;28;20122;-73
2021/03/05 03:41:30;;;;;;;28.38;16.40;;;;;;;5.32;67.70;99291.44;5114264;28;20040;-72
2021/03/05 03:43:57;;;;;;;27.15;15.93;;;;;;;5.33;67.95;99300.94;5113956;28;20402;-73
2021/03/05 03:46:24;;;;;;;28.60;17.00;;;;;;;5.25;68.04;99301.69;5114121;28;20049;-73
2021/03/05 03:48:56;;;;;;;29.17;16.65;;;;;;;5.33;68.07;99304.41;5113763;28;20046;-73
2021/03/05 03:51:25;;;;;;;32.90;17.98;;;;;;;5.34;68.09;99305.22;5113902;28;20051;-72
2021/03/05 03:53:55;;;;;;;37.70;17.17;;;;;;;5.25;68.12;99301.69;5113865;28;20051;-73
2021/03/05 03:56:22;;;;;;;31.65;17.75;;;;;;;5.21;68.44;99306.38;5113753;28;20042;-73
2021/03/05 03:58:51;;;;;;;32.40;18.67;;;;;;;5.10;68.93;99311.00;5112306;28;20047;-73
2021/03/05 04:01:18;;;;;;;35.10;18.60;;;;;;;5.06;69.30;99307.00;5112478;28;20051;-73
2021/03/05 04:03:49;;;;;;;37.55;18.95;;;;;;;5.03;69.65;99310.75;5113708;28;20570;-73
2021/03/05 04:06:21;;;;;;;31.85;18.33;;;;;;;5.10;69.68;99319.72;5113934;28;20039;-73
2021/03/05 04:08:50;;;;;;;34.95;18.77;;;;;;;5.08;69.56;99318.19;5113490;28;20048;-73
2021/03/05 04:11:18;;;;;;;31.95;18.90;;;;;;;5.09;69.53;99318.03;5113774;28;20434;-73
2021/03/05 04:13:46;;;;;;;33.25;18.10;;;;;;;5.18;69.63;99311.94;5113395;28;20077;-73
2021/03/05 04:16:13;;;;;;;31.98;18.83;;;;;;;5.29;69.62;99325.81;5113336;28;20047;-73
2021/03/05 04:18:41;;;;;;;30.92;17.25;;;;;;;5.20;69.42;99330.97;5113195;28;20040;-73
2021/03/05 04:21:13;;;;;;;32.25;18.70;;;;;;;5.25;69.49;99330.50;5113375;28;20063;-73
2021/03/05 04:23:40;;;;;;;35.40;18.10;;;;;;;5.13;69.76;99331.69;5113402;28;20494;-73
2021/03/05 04:26:06;;;;;;;38.10;19.85;;;;;;;5.17;69.77;99338.28;5113067;28;20515;-73
2021/03/05 04:28:34;;;;;;;36.40;18.55;;;;;;;5.07;69.94;99337.50;5111797;28;20409;-72
2021/03/05 04:31:01;;;;;;;36.42;20.13;;;;;;;5.11;70.00;99337.06;5111746;28;20490;-73
2021/03/05 04:33:28;;;;;;;35.85;19.92;;;;;;;5.01;70.13;99338.88;5113261;28;20515;-72
2021/03/05 04:35:55;;;;;;;34.65;18.85;;;;;;;4.97;70.19;99343.59;5112963;28;20458;-73
2021/03/05 04:38:22;;;;;;;35.80;18.67;;;;;;;4.95;70.57;99337.69;5112822;28;20047;-73
2021/03/05 04:40:49;;;;;;;35.97;19.60;;;;;;;4.83;70.95;99341.44;5113089;27;20513;-73
2021/03/05 04:43:15;;;;;;;38.83;20.63;;;;;;;4.90;70.90;99352.19;5112645;28;20051;-72
2021/03/05 04:45:43;;;;;;;35.90;19.67;;;;;;;4.89;71.09;99353.97;5112991;27;20046;-73
2021/03/05 04:48:10;;;;;;;37.25;20.63;;;;;;;4.83;71.29;99353.72;5113121;28;20425;-73
2021/03/05 04:50:37;;;;;;;41.15;19.70;;;;;;;4.80;71.57;99352.19;5113046;28;20075;-73
2021/03/05 04:53:04;;;;;;;35.67;19.52;;;;;;;4.91;71.69;99359.91;5113005;28;20043;-73
2021/03/05 04:55:32;;;;;;;34.67;19.30;;;;;;;4.91;71.43;99356.47;5111557;28;20050;-73
2021/03/05 04:57:59;;;;;;;35.78;19.90;;;;;;;4.86;71.59;99353.44;5112742;28;20055;-73
2021/03/05 05:00:25;;;;;;;37.38;21.20;;;;;;;4.87;71.56;99355.91;5112624;28;20043;-73
2021/03/05 05:02:53;;;;;;;36.08;19.15;;;;;;;4.90;71.39;99362.69;5111851;28;20047;-73
2021/03/05 05:05:20;;;;;;;34.88;19.98;;;;;;;4.89;71.69;99361.00;5112522;28;20042;-73
2021/03/05 05:07:47;;;;;;;34.15;18.65;;;;;;;4.88;71.35;99364.59;5112606;28;20100;-73
2021/03/05 05:10:15;;;;;;;35.05;20.20;;;;;;;4.86;71.24;99370.00;5112461;28;20086;-73
2021/03/05 05:12:41;;;;;;;34.97;19.77;;;;;;;4.64;70.98;99367.69;5112318;28;20067;-73
2021/03/05 05:15:09;;;;;;;37.33;19.48;;;;;;;4.70;71.35;99367.97;5112455;28;20052;-73
2021/03/05 05:17:35;;;;;;;36.78;18.50;;;;;;;4.64;71.04;99370.28;5112404;28;20063;-73
2021/03/05 05:20:06;;;;;;;32.95;17.67;;;;;;;4.70;71.00;99367.13;5112351;28;20489;-73
2021/03/05 05:22:34;;;;;;;33.65;19.38;;;;;;;4.51;70.47;99380.25;5112453;28;20505;-73
2021/03/05 05:25:01;;;;;;;34.55;18.75;;;;;;;4.52;70.63;99385.34;5112303;28;20040;-73
2021/03/05 05:27:28;;;;;;;32.05;18.77;;;;;;;4.52;70.62;99387.94;5111003;28;20047;-73
2021/03/05 05:29:55;;;;;;;28.85;17.63;;;;;;;4.33;70.40;99380.13;5111068;28;20130;-73
2021/03/05 05:32:22;;;;;;;25.05;16.02;;;;;;;4.22;70.55;99384.53;5112377;28;20071;-72
2021/03/05 05:34:51;;;;;;;30.13;17.63;;;;;;;4.25;70.60;99390.47;5112277;28;20051;-73
2021/03/05 05:37:18;;;;;;;26.90;17.02;;;;;;;4.29;70.72;99394.47;5112424;28;20050;-73
2021/03/05 05:39:45;;;;;;;27.45;17.63;;;;;;;4.31;70.55;99393.34;5112172;28;20126;-73
2021/03/05 05:42:13;;;;;;;25.30;16.40;;;;;;;4.29;70.49;99390.06;5112465;28;20401;-73
2021/03/05 05:44:39;;;;;;;27.70;17.05;;;;;;;4.31;70.41;99393.34;5112126;28;20043;-73
2021/03/05 05:47:07;;;;;;;24.83;16.63;;;;;;;4.41;70.30;99399.41;5112254;28;20402;-73
2021/03/05 05:49:36;;;;;;;24.13;16.35;;;;;;;4.44;70.05;99398.28;5112100;28;20036;-73
2021/03/05 05:52:05;;;;;;;26.23;16.70;;;;;;;4.36;69.81;99400.78;5112469;28;20067;-73
2021/03/05 05:54:34;;;;;;;31.95;17.50;;;;;;;4.40;69.86;99404.78;5111991;28;20143;-73
2021/03/05 05:57:02;;;;;;;26.30;17.58;;;;;;;4.43;70.20;99399.25;5116347;28;20055;-73
2021/03/05 05:59:28;;;;;;;27.20;15.27;;;;;;;4.53;70.16;99400.09;5115926;28;20130;-73
2021/03/05 06:01:56;;;;;;;26.70;17.35;;;;;;;4.42;69.66;99402.84;5117092;28;20040;-72
2021/03/05 06:04:25;;;;;;;26.45;17.23;;;;;;;4.24;69.92;99397.47;5116418;27;20110;-72
2021/03/05 06:06:53;;;;;;;24.83;15.48;;;;;;;4.16;70.23;99413.88;5115035;28;20078;-72
2021/03/05 06:09:20;;;;;;;31.77;17.73;;;;;;;4.34;70.50;99407.97;5116026;28;20036;-72
2021/03/05 06:11:47;;;;;;;26.48;17.80;;;;;;;4.36;70.28;99412.06;5115891;27;20036;-72
2021/03/05 06:14:14;;;;;;;28.17;17.40;;;;;;;4.40;70.12;99413.44;5115729;28;20082;-72
2021/03/05 06:16:53;;;;;;;30.02;18.10;;;;;;;4.35;69.63;99406.97;5115769;28;20054;-72
2021/03/05 06:19:22;;;;;;;29.40;17.80;;;;;;;4.30;69.64;99423.09;5115611;28;20061;-72
2021/03/05 06:21:51;;;;;;;27.40;16.23;;;;;;;4.18;69.94;99417.16;5116071;28;20069;-71
2021/03/05 06:24:19;;;;;;;29.42;18.08;;;;;;;4.30;69.89;99423.09;5115772;28;20044;-72
2021/03/05 06:26:55;;;;;;;24.95;16.20;;;;;;;4.36;69.89;99419.91;5116301;28;20051;-72
2021/03/05 06:29:23;;;;;;;26.33;15.48;;;;;;;4.30;69.35;99430.13;5115006;28;20047;-72
2021/03/05 06:31:56;;;;;;;23.77;15.90;;;;;;;4.27;69.21;99431.22;5116636;28;20035;-72
2021/03/05 06:34:23;;;;;;;23.83;15.32;;;;;;;4.19;68.55;99444.16;5115889;28;20052;-72
2021/03/05 06:37:01;;;;;;;23.83;16.20;;;;;;;4.13;68.73;99447.34;5116897;28;20082;-71
2021/03/05 06:39:30;;;;;;;34.60;16.17;;;;;;;4.05;68.80;99447.19;5115665;27;20039;-72
2021/03/05 06:42:02;;;;;;;18.45;10.75;;;;;;;3.92;67.25;99448.28;5114665;28;20039;-72
2021/03/05 06:44:29;;;;;;;15.95;8.90;;;;;;;3.80;66.54;99449.34;5139043;28;20038;-72
2021/03/05 06:46:56;;;;;;;17.23;9.57;;;;;;;3.60;65.41;99450.22;5141419;28;20107;-73
2021/03/05 06:49:23;;;;;;;17.70;9.50;;;;;;;3.65;65.50;99453.28;5134078;28;20043;-71
2021/03/05 06:51:52;;;;;;;16.85;8.45;;;;;;;3.60;65.29;99453.69;5116363;28;20069;-72
2021/03/05 06:54:20;;;;;;;14.35;8.25;;;;;;;3.62;65.13;99454.34;5115513;28;20067;-72
2021/03/05 06:56:49;;;;;;;18.10;8.02;;;;;;;3.66;64.83;99458.34;5115377;28;20054;-72
2021/03/05 06:59:18;;;;;;;13.95;8.27;;;;;;;3.62;64.33;99461.38;5113738;28;20051;-72
2021/03/05 07:01:46;;;;;;;20.13;8.60;;;;;;;3.70;64.69;99458.91;5115343;28;20071;-72
2021/03/05 07:04:16;;;;;;;15.48;8.70;;;;;;;3.72;64.43;99449.19;5115279;28;20039;-72
2021/03/05 07:06:43;;;;;;;14.35;8.18;;;;;;;3.74;63.84;99460.31;5114732;28;20044;-72
2021/03/05 07:09:11;;;;;;;16.20;7.97;;;;;;;3.86;64.15;99466.28;5114900;28;20062;-72
2021/03/05 07:11:40;;;;;;;18.17;8.63;;;;;;;3.99;64.08;99464.22;5114835;28;20454;-72
2021/03/05 07:14:09;;;;;;;14.90;9.32;;;;;;;4.12;63.89;99467.44;5114732;28;20049;-72
2021/03/05 07:16:45;;;;;;;14.65;9.45;;;;;;;4.20;63.50;99478.06;5114791;27;20051;-72
2021/03/05 07:19:15;;;;;;;13.52;8.02;;;;;;;4.22;63.48;99475.31;5114547;28;20046;-72
2021/03/05 07:21:44;;;;;;;12.63;7.65;;;;;;;4.13;63.01;99482.19;5114597;28;20047;-72
2021/03/05 07:24:13;;;;;;;17.42;8.57;;;;;;;4.29;63.20;99491.31;5114551;28;20063;-72
2021/03/05 07:26:52;;;;;;;12.00;7.28;;;;;;;4.37;62.60;99481.81;5114449;28;20050;-72
2021/03/05 07:29:21;;;;;;;15.77;7.70;;;;;;;4.49;62.88;99492.97;5114392;28;20044;-72
2021/03/05 07:31:57;;;;;;;16.52;8.25;;;;;;;4.30;61.64;99499.00;5112958;28;20039;-72
2021/03/05 07:34:26;;;;;;;13.18;7.68;;;;;;;4.18;61.72;99502.72;5112801;28;20572;-72
2021/03/05 07:36:58;;;;;;;16.88;8.02;;;;;;;4.18;61.90;99498.28;5113357;28;20172;-72
2021/03/05 07:39:27;;;;;;;12.18;8.32;;;;;;;4.25;62.06;99501.22;5112723;28;20513;-72
2021/03/05 07:41:55;;;;;;;14.00;7.97;;;;;;;4.30;61.58;99499.00;5114195;28;20043;-72
2021/03/05 07:44:24;;;;;;;12.05;8.00;;;;;;;4.40;61.62;99506.88;5114178;28;20048;-72
2021/03/05 07:46:53;;;;;;;17.65;8.20;;;;;;;4.26;61.28;99507.28;5114105;27;20408;-72
2021/03/05 07:49:26;;;;;;;11.75;7.60;;;;;;;4.46;61.96;99511.56;5113815;28;20048;-72
2021/03/05 07:51:55;;;;;;;12.93;7.68;;;;;;;4.70;62.18;99513.81;5113899;28;20032;-72
2021/03/05 07:54:45;;;;;;;11.98;7.25;;;;;;;4.78;61.43;99521.78;5113961;27;20043;-72
2021/03/05 07:57:48;;;;;;;13.38;8.20;;;;;;;4.80;60.88;99526.88;5114405;28;20055;-72
2021/03/05 08:00:46;;;;;;;11.60;7.55;;;;;;;4.71;61.22;99532.00;5113998;28;20050;-72
2021/03/05 08:03:15;;;;;;;12.75;7.88;;;;;;;4.76;61.44;99530.75;5113999;28;20465;-72
2021/03/05 08:05:44;;;;;;;16.13;7.47;;;;;;;4.74;60.78;99533.50;5113625;28;20084;-72
2021/03/05 08:08:24;;;;;;;13.48;7.80;;;;;;;4.77;61.21;99535.84;5113513;28;20047;-73
2021/03/05 08:10:57;;;;;;;14.35;7.43;;;;;;;4.74;60.84;99543.16;5113751;28;20039;-72
2021/03/05 08:13:46;;;;;;;13.52;8.13;;;;;;;4.79;61.15;99539.16;5113504;28;20525;-72
2021/03/05 08:16:37;;;;;;;13.30;7.78;;;;;;;4.85;60.62;99543.84;5113449;28;20377;-71
2021/03/05 08:19:48;;;;;;;13.52;7.53;;;;;;;4.62;59.81;99542.47;5111406;28;20056;-71
2021/03/05 08:22:20;;;;;;;16.50;9.13;;;;;;;4.68;60.41;99544.53;5113356;28;20039;-71
2021/03/05 08:24:49;;;;;;;15.05;8.70;;;;;;;4.86;60.87;99547.31;5113078;28;20062;-71
2021/03/05 08:27:21;;;;;;;13.30;7.65;;;;;;;4.72;60.22;99545.91;5113142;28;20505;-71
2021/03/05 08:29:58;;;;;;;14.00;8.65;;;;;;;4.68;60.17;99549.75;5113033;28;20047;-72
2021/03/05 08:32:46;;;;;;;14.23;8.32;;;;;;;4.94;60.54;99555.31;5113078;28;20088;-71
2021/03/05 08:35:14;;;;;;;16.08;8.85;;;;;;;5.10;60.67;99542.47;5104450;28;20165;-71
2021/03/05 08:37:44;;;;;;;19.58;8.95;;;;;;;5.29;60.38;99548.63;5112956;28;20055;-71
2021/03/05 08:40:31;;;;;;;18.70;9.13;;;;;;;5.46;59.68;99561.84;5112945;28;20035;-71
2021/03/05 08:43:17;;;;;;;20.17;9.23;;;;;;;5.39;59.83;99560.78;5111721;28;20056;-71
2021/03/05 08:45:46;;;;;;;15.52;8.90;;;;;;;5.29;58.92;99573.06;5112893;28;20036;-71
2021/03/05 08:48:23;;;;;;;19.88;9.32;;;;;;;5.41;59.74;99571.13;5112885;28;20589;-71
2021/03/05 08:50:51;;;;;;;16.35;9.23;;;;;;;5.36;59.45;99562.84;5111512;28;20116;-71
2021/03/05 08:53:18;;;;;;;18.40;9.30;;;;;;;5.49;59.60;99566.00;5112835;28;20044;-71
2021/03/05 08:55:45;;;;;;;20.33;11.05;;;;;;;5.13;59.07;99581.47;5112439;28;20122;-71
2021/03/05 08:58:16;;;;;;;16.13;9.48;;;;;;;5.19;59.62;99583.56;5112553;28;20043;-70
2021/03/05 09:00:44;;;;;;;15.60;11.00;;;;;;;5.19;59.70;99582.75;5112575;28;20373;-71
2021/03/05 09:03:15;;;;;;;15.18;9.95;;;;;;;5.06;59.51;99572.53;5112606;28;20046;-71
2021/03/05 09:05:45;;;;;;;16.77;10.02;;;;;;;4.95;59.44;99581.34;5112454;28;20493;-71
2021/03/05 09:08:13;;;;;;;19.17;10.38;;;;;;;4.81;59.80;99587.00;5112417;28;20489;-71
2021/03/05 09:10:43;;;;;;;20.67;10.30;;;;;;;4.73;59.91;99581.59;5112457;28;20047;-71
2021/03/05 09:13:10;;;;;;;18.75;10.02;;;;;;;4.64;60.06;99590.28;5112599;28;20047;-71
2021/03/05 09:15:40;;;;;;;17.85;10.43;;;;;;;4.53;60.51;99590.38;5112410;28;20051;-71
2021/03/05 09:18:06;;;;;;;21.95;11.30;;;;;;;4.79;60.44;99594.16;5111442;28;20054;-71
2021/03/05 09:20:36;;;;;;;23.45;11.02;;;;;;;5.00;59.93;99594.03;5113953;28;20046;-71
2021/03/05 09:23:17;;;;;;;23.27;11.05;;;;;;;5.01;59.83;99592.25;5112735;28;20040;-71
2021/03/05 09:25:53;;;;;;;16.42;10.35;;;;;;;5.11;59.87;99595.72;5111828;28;20115;-71
2021/03/05 09:28:21;;;;;;;18.95;11.00;;;;;;;5.19;59.64;99603.72;5112913;28;20679;-71
2021/03/05 09:30:50;;;;;;;17.80;10.48;;;;;;;5.08;59.77;99604.66;5116673;28;20069;-71
2021/03/05 09:33:17;;;;;;;17.65;10.18;;;;;;;5.08;59.98;99598.59;5116497;28;20043;-71
2021/03/05 09:35:44;;;;;;;23.08;10.88;;;;;;;5.21;60.12;99605.22;5116301;28;20046;-71
2021/03/05 09:38:17;;;;;;;23.65;11.95;;;;;;;5.42;59.90;99605.06;5116337;28;20071;-71
2021/03/05 09:40:44;;;;;;;20.70;12.07;;;;;;;5.61;59.95;99601.59;5116636;28;20035;-71
2021/03/05 09:43:16;;;;;;;16.77;10.57;;;;;;;5.57;58.83;99602.00;5116418;28;20482;-71
2021/03/05 09:45:48;;;;;;;20.70;10.32;;;;;;;5.50;59.17;99599.09;5116156;28;20097;-71
2021/03/05 09:48:27;;;;;;;17.50;10.48;;;;;;;5.59;59.01;99605.31;5114938;28;20055;-71
2021/03/05 09:50:57;;;;;;;21.52;11.60;;;;;;;5.41;58.63;99607.81;5116588;28;20100;-71
2021/03/05 09:53:27;;;;;;;19.50;10.48;;;;;;;5.50;58.54;99616.66;5116396;27;20036;-71
2021/03/05 09:55:56;;;;;;;17.88;10.75;;;;;;;5.35;59.09;99622.34;5115967;28;20036;-71
2021/03/05 09:58:23;;;;;;;21.90;11.02;;;;;;;5.33;58.93;99620.81;5114595;28;20044;-71
2021/03/05 10:00:52;;;;;;;20.90;10.30;;;;;;;5.21;58.96;99620.13;5116194;28;20114;-71
2021/03/05 10:03:20;;;;;;;18.08;10.75;;;;;;;4.92;59.86;99633.19;5116066;28;20044;-71
2021/03/05 10:05:48;;;;;;;16.95;10.02;;;;;;;4.81;59.81;99635.94;5114501;28;20086;-71
2021/03/05 10:08:19;;;;;;;20.05;10.10;;;;;;;4.59;60.26;99640.44;5115875;28;20443;-71
2021/03/05 10:10:58;;;;;;;20.40;10.07;;;;;;;4.51;60.63;99636.84;5116013;28;20039;-71
2021/03/05 10:13:54;;;;;;;17.30;9.52;;;;;;;4.64;60.66;99642.66;5115946;28;20078;-71
2021/03/05 10:16:24;;;;;;;18.05;9.63;;;;;;;4.43;60.78;99645.34;5115800;28;20036;-71
2021/03/05 10:18:53;;;;;;;20.02;10.50;;;;;;;4.42;60.93;99644.53;5115455;28;20043;-71
2021/03/05 10:21:21;;;;;;;18.92;9.45;;;;;;;4.29;61.08;99643.13;5115837;28;20039;-71
2021/03/05 10:23:48;;;;;;;15.65;8.98;;;;;;;4.35;60.97;99647.81;5115909;28;20036;-71
2021/03/05 10:26:18;;;;;;;19.90;10.20;;;;;;;4.32;61.35;99654.13;5115502;28;20101;-71
2021/03/05 10:28:47;;;;;;;16.73;9.55;;;;;;;4.36;61.35;99654.69;5115711;28;20040;-71
2021/03/05 10:31:15;;;;;;;18.60;11.00;;;;;;;4.50;61.44;99662.19;5121391;28;20041;-72
2021/03/05 10:33:44;;;;;;;17.05;11.40;;;;;;;4.65;60.95;99654.78;5141010;28;20031;-72
2021/03/05 10:36:13;;;;;;;21.85;10.88;;;;;;;4.83;61.15;99657.59;5141776;28;20066;-71
2021/03/05 10:38:42;;;;;;;20.45;10.32;;;;;;;5.03;60.50;99658.47;5121018;28;20051;-72
2021/03/05 10:41:09;;;;;;;20.80;11.25;;;;;;;5.00;59.92;99656.94;5115763;28;20050;-72
2021/03/05 10:43:39;;;;;;;19.48;10.27;;;;;;;4.89;60.01;99659.66;5114774;28;20573;-72
2021/03/05 10:46:08;;;;;;;16.17;11.43;;;;;;;4.95;60.42;99659.97;5115338;28;20043;-73
2021/03/05 10:48:35;;;;;;;17.17;10.65;;;;;;;5.18;60.25;99678.91;5115059;28;20043;-72
2021/03/05 10:51:02;;;;;;;20.98;10.93;;;;;;;5.16;59.68;99677.38;5115384;27;20108;-73
2021/03/05 10:53:29;;;;;;;19.55;10.85;;;;;;;5.18;59.88;99678.91;5114997;28;20035;-72
2021/03/05 10:55:56;;;;;;;17.77;11.13;;;;;;;5.36;59.84;99681.66;5114885;28;20051;-73
2021/03/05 10:58:23;;;;;;;18.95;10.18;;;;;;;5.14;59.16;99676.66;5114912;28;20135;-72
2021/03/05 11:00:51;;;;;;;20.90;10.73;;;;;;;5.15;59.43;99676.56;5114802;28;20057;-72
2021/03/05 11:03:19;;;;;;;15.73;9.98;;;;;;;5.30;59.65;99684.00;5115008;28;20494;-72
2021/03/05 11:05:46;;;;;;;17.77;9.73;;;;;;;5.45;59.15;99682.63;5113345;28;20050;-72
2021/03/05 11:08:15;;;;;;;18.83;10.95;;;;;;;5.46;58.79;99677.22;5114976;28;20040;-72
2021/03/05 11:10:42;;;;;;;18.63;10.55;;;;;;;5.46;58.93;99685.09;5114874;28;20047;-72
2021/03/05 11:13:09;;;;;;;19.98;11.73;;;;;;;5.37;58.90;99685.09;5114631;28;20057;-72
2021/03/05 11:15:36;;;;;;;19.20;10.75;;;;;;;5.33;59.15;99684.56;5114677;28;20044;-72
2021/03/05 11:18:03;;;;;;;20.77;9.63;;;;;;;5.47;58.25;99680.72;5114444;28;20036;-73
2021/03/05 11:20:30;;;;;;;18.65;10.45;;;;;;;5.37;58.30;99690.34;5114638;28;20048;-72
2021/03/05 11:22:58;;;;;;;15.98;9.50;;;;;;;5.38;58.53;99684.13;5114556;28;20047;-72
2021/03/05 11:25:25;;;;;;;17.08;9.90;;;;;;;5.36;58.69;99686.09;5114808;27;20051;-72
2021/03/05 11:27:52;;;;;;;16.70;9.73;;;;;;;5.34;58.85;99688.81;5114184;28;20047;-72
2021/03/05 11:30:19;;;;;;;17.52;9.48;;;;;;;5.36;58.40;99686.91;5114511;28;20048;-72
2021/03/05 11:32:47;;;;;;;18.45;9.68;;;;;;;5.32;58.52;99692.56;5114160;28;20517;-72
2021/03/05 11:35:14;;;;;;;13.70;9.18;;;;;;;5.35;58.49;99695.75;5114203;28;20043;-72
2021/03/05 11:37:41;;;;;;;12.82;9.35;;;;;;;5.34;58.39;99701.94;5114306;28;20067;-73
2021/03/05 11:40:10;;;;;;;12.95;8.57;;;;;;;5.38;58.31;99703.31;5113096;28;20047;-72